createdAt,value
2023-02-13T00:00:35.926Z,5.30
2023-02-13T00:03:03.763Z,5.20
2023-02-13T00:05:30.904Z,5.20
2023-02-13T00:07:58.254Z,5.10
2023-02-13T00:10:25.792Z,5.00
2023-02-13T00:12:53.002Z,5.00
2023-02-13T00:15:20.313Z,5.00
2023-02-13T00:17:47.521Z,4.90
2023-02-13T00:20:14.631Z,4.90
2023-02-13T00:22:42.053Z,4.90
2023-02-13T00:25:09.669Z,4.90
2023-02-13T00:27:37.100Z,4.90
2023-02-13T00:30:05.713Z,4.90
2023-02-13T00:32:33.200Z,4.90
2023-02-13T00:35:00.373Z,5.00
2023-02-13T00:37:27.699Z,5.00
2023-02-13T00:39:54.890Z,5.00
2023-02-13T00:42:26.616Z,5.10
2023-02-13T00:44:54.798Z,5.20
2023-02-13T00:47:23.628Z,5.20
2023-02-13T00:49:50.945Z,5.20
2023-02-13T00:52:18.257Z,5.20
2023-02-13T00:54:46.798Z,5.20
2023-02-13T00:57:13.926Z,5.10
2023-02-13T00:59:42.842Z,5.00
2023-02-13T01:02:10.049Z,4.90
2023-02-13T01:04:37.420Z,4.90
2023-02-13T01:07:04.662Z,4.90
2023-02-13T01:09:32.030Z,4.90
2023-02-13T01:11:59.160Z,4.90
2023-02-13T01:14:26.561Z,4.90
2023-02-13T01:16:53.772Z,5.00
2023-02-13T01:19:21.082Z,5.00
2023-02-13T01:21:48.372Z,5.10
2023-02-13T01:24:15.656Z,5.10
2023-02-13T01:26:42.862Z,5.10
2023-02-13T01:29:13.056Z,5.20
2023-02-13T01:31:40.545Z,5.20
2023-02-13T01:34:07.832Z,5.20
2023-02-13T01:36:35.084Z,5.30
2023-02-13T01:39:02.306Z,5.20
2023-02-13T01:41:31.570Z,5.20
2023-02-13T01:44:02.209Z,5.20
2023-02-13T01:46:37.283Z,5.30
2023-02-13T01:49:18.761Z,5.20
2023-02-13T01:51:47.598Z,5.30
2023-02-13T01:54:19.336Z,5.30
2023-02-13T01:56:52.110Z,5.30
2023-02-13T01:59:29.076Z,5.20
2023-02-13T02:01:58.314Z,5.30
2023-02-13T02:04:32.231Z,5.30
2023-02-13T02:07:08.922Z,5.30
2023-02-13T02:09:39.665Z,5.30
2023-02-13T02:12:32.752Z,5.30
2023-02-13T02:15:02.261Z,5.30
2023-02-13T02:17:33.242Z,5.30
2023-02-13T02:20:20.349Z,5.30
2023-02-13T02:23:27.354Z,5.40
2023-02-13T02:26:37.086Z,5.40
2023-02-13T02:29:28.709Z,5.40
2023-02-13T02:32:15.916Z,5.40
2023-02-13T02:35:22.884Z,5.40
2023-02-13T02:38:29.913Z,5.30
2023-02-13T02:41:46.363Z,5.30
2023-02-13T02:44:45.838Z,5.40
2023-02-13T02:47:58.815Z,5.30
2023-02-13T02:50:52.010Z,5.30
2023-02-13T02:53:39.638Z,5.30
2023-02-13T02:56:19.360Z,5.30
2023-02-13T02:59:14.704Z,5.30
2023-02-13T03:02:01.978Z,5.30
2023-02-13T03:04:56.396Z,5.30
2023-02-13T03:07:24.150Z,5.30
2023-02-13T03:10:19.403Z,5.30
2023-02-13T03:13:20.525Z,5.30
2023-02-13T03:16:11.435Z,5.20
2023-02-13T03:19:03.254Z,5.10
2023-02-13T03:22:13.740Z,5.00
2023-02-13T03:25:07.992Z,5.00
2023-02-13T03:28:21.320Z,5.00
2023-02-13T03:31:28.419Z,5.00
2023-02-13T03:34:07.074Z,5.10
2023-02-13T03:37:07.069Z,5.10
2023-02-13T03:40:00.407Z,5.20
2023-02-13T03:42:42.590Z,5.20
2023-02-13T03:45:36.837Z,5.20
2023-02-13T03:48:10.104Z,5.20
2023-02-13T03:50:43.351Z,5.20
2023-02-13T03:53:14.196Z,5.20
2023-02-13T03:56:06.535Z,5.10
2023-02-13T03:59:03.245Z,5.10
2023-02-13T04:01:34.193Z,5.20
2023-02-13T04:04:24.169Z,5.10
2023-02-13T04:06:58.372Z,5.10
2023-02-13T04:09:28.737Z,5.10
2023-02-13T04:12:25.324Z,5.10
2023-02-13T04:15:05.109Z,5.00
2023-02-13T04:17:39.262Z,4.90
2023-02-13T04:20:08.014Z,4.90
2023-02-13T04:22:35.244Z,4.90
2023-02-13T04:25:02.504Z,4.90
2023-02-13T04:27:29.720Z,4.90
2023-02-13T04:29:56.905Z,4.90
2023-02-13T04:32:24.059Z,4.90
2023-02-13T04:34:51.353Z,4.90
2023-02-13T04:37:18.505Z,4.90
2023-02-13T04:39:45.764Z,4.90
2023-02-13T04:42:12.988Z,4.80
2023-02-13T04:44:40.246Z,4.80
2023-02-13T04:47:07.357Z,4.80
2023-02-13T04:49:34.707Z,4.80
2023-02-13T04:52:01.813Z,4.80
2023-02-13T04:54:29.018Z,4.80
2023-02-13T04:56:56.262Z,4.80
2023-02-13T04:59:23.438Z,4.80
2023-02-13T05:01:50.563Z,4.70
2023-02-13T05:04:17.909Z,4.70
2023-02-13T05:06:45.257Z,4.70
2023-02-13T05:09:12.614Z,4.70
2023-02-13T05:11:39.939Z,4.70
2023-02-13T05:14:07.254Z,4.70
2023-02-13T05:16:34.454Z,4.60
2023-02-13T05:19:01.687Z,4.70
2023-02-13T05:21:48.856Z,4.60
2023-02-13T05:24:16.168Z,4.60
2023-02-13T05:26:43.338Z,4.60
2023-02-13T05:29:31.494Z,4.60
2023-02-13T05:32:00.141Z,4.60
2023-02-13T05:34:29.052Z,4.60
2023-02-13T05:36:56.593Z,4.60
2023-02-13T05:39:23.736Z,4.50
2023-02-13T05:41:50.940Z,4.50
2023-02-13T05:44:18.232Z,4.50
2023-02-13T05:46:45.622Z,4.50
2023-02-13T05:49:15.189Z,4.50
2023-02-13T05:51:43.660Z,4.50
2023-02-13T05:54:10.803Z,4.50
2023-02-13T05:56:38.031Z,4.50
2023-02-13T05:59:05.300Z,4.50
2023-02-13T06:01:32.535Z,4.50
2023-02-13T06:04:02.036Z,4.50
2023-02-13T06:06:30.748Z,4.50
2023-02-13T06:08:58.016Z,4.50
2023-02-13T06:11:25.346Z,4.50
2023-02-13T06:13:52.535Z,4.50
2023-02-13T06:16:19.856Z,4.50
2023-02-13T06:18:47.041Z,4.50
2023-02-13T06:21:14.614Z,4.50
2023-02-13T06:23:41.665Z,4.50
2023-02-13T06:26:09.899Z,4.50
2023-02-13T06:28:37.567Z,4.40
2023-02-13T06:31:05.428Z,4.40
2023-02-13T06:33:32.616Z,4.40
2023-02-13T06:35:59.905Z,4.40
2023-02-13T06:38:27.325Z,4.50
2023-02-13T06:41:01.968Z,4.40
2023-02-13T06:43:29.317Z,4.50
2023-02-13T06:45:57.025Z,4.40
2023-02-13T06:48:24.532Z,4.40
2023-02-13T06:50:53.071Z,4.40
2023-02-13T06:53:24.884Z,4.40
2023-02-13T06:55:53.838Z,4.40
2023-02-13T06:58:22.785Z,4.40
2023-02-13T07:00:51.352Z,4.40
2023-02-13T07:03:18.565Z,4.40
2023-02-13T07:05:46.231Z,4.40
2023-02-13T07:08:13.807Z,4.40
2023-02-13T07:10:42.085Z,4.50
2023-02-13T07:13:10.279Z,4.50
2023-02-13T07:15:39.120Z,4.60
2023-02-13T07:18:06.873Z,4.60
2023-02-13T07:20:34.589Z,4.70
2023-02-13T07:23:04.496Z,4.70
2023-02-13T07:25:32.353Z,4.80
2023-02-13T07:28:06.887Z,4.80
2023-02-13T07:30:35.231Z,4.80
2023-02-13T07:33:03.529Z,4.90
2023-02-13T07:35:31.533Z,4.90
2023-02-13T07:38:00.804Z,4.90
2023-02-13T07:40:28.227Z,4.90
2023-02-13T07:42:56.478Z,4.90
2023-02-13T07:45:23.731Z,4.90
2023-02-13T07:47:50.852Z,4.80
2023-02-13T07:50:18.179Z,4.80
2023-02-13T07:52:45.390Z,4.80
2023-02-13T07:55:12.672Z,4.90
2023-02-13T07:57:39.823Z,4.90
2023-02-13T08:00:08.021Z,4.90
2023-02-13T08:02:39.460Z,5.00
2023-02-13T08:05:07.431Z,5.00
2023-02-13T08:07:35.339Z,5.10
2023-02-13T08:10:23.021Z,5.10
2023-02-13T08:12:50.948Z,5.20
2023-02-13T08:15:18.198Z,5.30
2023-02-13T08:17:45.471Z,5.30
2023-02-13T08:20:13.055Z,5.40
2023-02-13T08:22:40.590Z,5.50
2023-02-13T08:25:08.297Z,5.70
2023-02-13T08:27:35.914Z,5.80
2023-02-13T08:30:03.673Z,5.90
2023-02-13T08:32:32.522Z,6.10
2023-02-13T08:35:02.692Z,6.30
2023-02-13T08:37:29.836Z,6.50
2023-02-13T08:39:57.339Z,6.70
2023-02-13T08:42:24.543Z,6.90
2023-02-13T08:44:51.806Z,7.10
2023-02-13T08:47:18.914Z,7.30
2023-02-13T08:49:46.343Z,7.50
2023-02-13T08:52:13.474Z,7.80
2023-02-13T08:54:40.682Z,8.00
2023-02-13T08:57:09.095Z,8.30
2023-02-13T08:59:36.278Z,8.60
2023-02-13T09:02:03.478Z,8.80
2023-02-13T09:04:31.132Z,8.90
2023-02-13T09:06:58.364Z,9.10
2023-02-13T09:09:25.584Z,9.10
2023-02-13T09:11:54.292Z,9.30
2023-02-13T09:14:23.287Z,9.50
2023-02-13T09:16:51.383Z,9.60
2023-02-13T09:19:18.685Z,9.80
2023-02-13T09:21:45.817Z,10.00
2023-02-13T09:24:13.016Z,10.10
2023-02-13T09:26:40.198Z,9.90
2023-02-13T09:29:07.461Z,9.90
2023-02-13T09:31:34.737Z,10.10
2023-02-13T09:34:02.211Z,10.30
2023-02-13T09:36:29.380Z,10.40
2023-02-13T09:38:57.802Z,10.60
2023-02-13T09:41:45.568Z,10.80
2023-02-13T09:44:44.451Z,10.90
2023-02-13T09:47:32.835Z,11.10
2023-02-13T09:50:24.204Z,11.00
2023-02-13T09:52:54.929Z,11.10
2023-02-13T09:55:53.097Z,11.10
2023-02-13T09:58:39.851Z,11.30
2023-02-13T10:01:15.980Z,11.40
2023-02-13T10:04:23.014Z,11.40
2023-02-13T10:07:17.501Z,11.70
2023-02-13T10:10:24.649Z,11.90
2023-02-13T10:13:06.050Z,11.90
2023-02-13T10:16:00.278Z,12.10
2023-02-13T10:18:34.540Z,12.40
2023-02-13T10:21:05.394Z,12.70
2023-02-13T10:23:43.898Z,12.80
2023-02-13T10:26:22.227Z,12.80
2023-02-13T10:29:21.190Z,12.80
2023-02-13T10:31:52.825Z,12.90
2023-02-13T10:34:27.022Z,13.00
2023-02-13T10:36:55.220Z,12.90
2023-02-13T10:39:28.838Z,12.90
2023-02-13T10:42:36.590Z,13.20
2023-02-13T10:45:23.991Z,13.40
2023-02-13T10:48:31.031Z,13.50
2023-02-13T10:51:16.300Z,13.50
2023-02-13T10:54:23.341Z,13.50
2023-02-13T10:57:21.882Z,13.80
2023-02-13T11:00:12.898Z,14.10
2023-02-13T11:02:41.580Z,14.10
2023-02-13T11:05:37.096Z,14.40
2023-02-13T11:08:15.225Z,14.40
2023-02-13T11:10:42.497Z,14.20
2023-02-13T11:13:30.191Z,14.30
2023-02-13T11:16:14.077Z,14.50
2023-02-13T11:18:49.112Z,14.70
2023-02-13T11:21:34.807Z,14.90
2023-02-13T11:24:03.325Z,14.80
2023-02-13T11:26:36.004Z,15.00
2023-02-13T11:29:18.622Z,15.00
2023-02-13T11:31:46.130Z,15.20
2023-02-13T11:34:31.863Z,15.40
2023-02-13T11:37:21.932Z,15.60
2023-02-13T11:39:51.871Z,15.60
2023-02-13T11:42:42.852Z,15.70
2023-02-13T11:45:29.983Z,15.80
2023-02-13T11:47:57.662Z,15.90
2023-02-13T11:50:35.309Z,15.90
2023-02-13T11:53:25.736Z,15.90
2023-02-13T11:56:15.077Z,15.90
2023-02-13T11:58:43.084Z,16.10
2023-02-13T12:01:28.434Z,16.10
2023-02-13T12:04:18.068Z,16.10
2023-02-13T12:07:12.763Z,16.30
2023-02-13T12:09:41.698Z,16.30
2023-02-13T12:12:33.033Z,16.30
2023-02-13T12:15:06.229Z,16.10
2023-02-13T12:17:35.528Z,16.10
2023-02-13T12:20:03.538Z,16.10
2023-02-13T12:22:44.713Z,16.00
2023-02-13T12:25:35.457Z,16.00
2023-02-13T12:28:28.058Z,16.10
2023-02-13T12:31:23.723Z,16.10
2023-02-13T12:34:30.758Z,16.00
2023-02-13T12:37:32.656Z,15.90
2023-02-13T12:40:28.816Z,16.00
2023-02-13T12:43:19.014Z,16.20
2023-02-13T12:46:09.967Z,16.20
2023-02-13T12:49:14.098Z,16.10
2023-02-13T12:52:21.171Z,16.10
2023-02-13T12:55:28.180Z,16.20
2023-02-13T12:58:35.215Z,16.20
2023-02-13T13:01:38.822Z,16.10
2023-02-13T13:04:33.349Z,16.00
2023-02-13T13:07:38.212Z,16.00
2023-02-13T13:10:36.068Z,16.10
2023-02-13T13:13:30.249Z,16.10
2023-02-13T13:16:24.302Z,16.20
2023-02-13T13:19:31.319Z,16.10
2023-02-13T13:22:10.050Z,16.20
2023-02-13T13:25:08.878Z,16.10
2023-02-13T13:27:58.121Z,16.10
2023-02-13T13:30:30.201Z,16.10
2023-02-13T13:33:04.610Z,16.10
2023-02-13T13:35:33.291Z,16.00
2023-02-13T13:38:40.281Z,16.00
2023-02-13T13:41:25.938Z,16.00
2023-02-13T13:44:26.620Z,16.00
2023-02-13T13:47:33.641Z,16.10
2023-02-13T13:50:02.427Z,16.20
2023-02-13T13:52:39.915Z,16.20
2023-02-13T13:55:27.738Z,16.30
2023-02-13T13:58:00.847Z,16.30
2023-02-13T14:00:30.269Z,16.30
2023-02-13T14:03:22.454Z,16.20
2023-02-13T14:06:11.762Z,16.20
2023-02-13T14:09:01.029Z,16.10
2023-02-13T14:11:42.413Z,16.10
2023-02-13T14:14:44.979Z,16.20
2023-02-13T14:17:15.705Z,16.20
2023-02-13T14:19:49.925Z,16.20
2023-02-13T14:22:34.316Z,16.20
2023-02-13T14:25:27.242Z,16.20
2023-02-13T14:28:04.385Z,16.30
2023-02-13T14:30:35.763Z,16.20
2023-02-13T14:33:06.685Z,16.20
2023-02-13T14:35:37.694Z,16.30
2023-02-13T14:38:10.704Z,16.30
2023-02-13T14:40:58.277Z,16.30
2023-02-13T14:43:51.432Z,16.30
2023-02-13T14:46:38.151Z,16.20
2023-02-13T14:49:19.548Z,16.10
2023-02-13T14:51:51.256Z,16.10
2023-02-13T14:54:44.246Z,16.10
2023-02-13T14:57:34.652Z,16.10
2023-02-13T15:00:09.438Z,16.10
2023-02-13T15:02:45.139Z,16.10
2023-02-13T15:05:21.362Z,16.10
2023-02-13T15:07:54.051Z,16.10
2023-02-13T15:10:47.341Z,16.10
2023-02-13T15:13:18.540Z,16.00
2023-02-13T15:16:07.252Z,16.00
2023-02-13T15:18:42.392Z,15.90
2023-02-13T15:21:17.612Z,15.80
2023-02-13T15:23:49.902Z,15.80
2023-02-13T15:26:24.068Z,15.80
2023-02-13T15:29:25.872Z,15.80
2023-02-13T15:31:54.715Z,15.80
2023-02-13T15:34:32.337Z,15.80
2023-02-13T15:37:00.042Z,15.80
2023-02-13T15:39:30.466Z,15.80
2023-02-13T15:42:00.808Z,15.80
2023-02-13T15:44:32.139Z,15.90
2023-02-13T15:47:08.143Z,16.00
2023-02-13T15:49:42.645Z,16.00
2023-02-13T15:52:21.878Z,16.10
2023-02-13T15:54:55.029Z,16.00
2023-02-13T15:57:23.739Z,16.00
2023-02-13T15:59:52.503Z,16.00
2023-02-13T16:02:22.844Z,16.00
2023-02-13T16:04:54.855Z,16.00
2023-02-13T16:07:22.622Z,15.90
2023-02-13T16:09:49.827Z,15.90
2023-02-13T16:12:26.799Z,15.80
2023-02-13T16:15:02.369Z,15.70
2023-02-13T16:17:35.148Z,15.60
2023-02-13T16:20:16.695Z,15.50
2023-02-13T16:22:51.655Z,15.40
2023-02-13T16:25:32.447Z,15.40
2023-02-13T16:28:05.862Z,15.30
2023-02-13T16:30:43.415Z,15.20
2023-02-13T16:33:16.936Z,15.10
2023-02-13T16:35:55.344Z,15.00
2023-02-13T16:38:36.013Z,14.90
2023-02-13T16:41:27.006Z,14.80
2023-02-13T16:44:00.277Z,14.70
2023-02-13T16:46:37.876Z,14.60
2023-02-13T16:49:16.244Z,14.50
2023-02-13T16:52:11.507Z,14.30
2023-02-13T16:54:59.766Z,14.20
2023-02-13T16:57:33.827Z,14.00
2023-02-13T17:00:22.673Z,13.80
2023-02-13T17:02:51.666Z,13.70
2023-02-13T17:05:26.836Z,13.60
2023-02-13T17:07:58.760Z,13.40
2023-02-13T17:10:32.425Z,13.30
2023-02-13T17:13:02.614Z,13.20
2023-02-13T17:15:32.330Z,13.00
2023-02-13T17:18:00.151Z,12.90
2023-02-13T17:20:30.486Z,12.80
2023-02-13T17:23:00.408Z,12.70
2023-02-13T17:25:30.865Z,12.60
2023-02-13T17:28:01.793Z,12.60
2023-02-13T17:30:31.451Z,12.50
2023-02-13T17:33:09.027Z,12.50
2023-02-13T17:35:36.347Z,12.40
2023-02-13T17:38:04.192Z,12.30
2023-02-13T17:40:32.104Z,12.20
2023-02-13T17:43:01.073Z,12.10
2023-02-13T17:45:31.542Z,12.00
2023-02-13T17:47:59.397Z,11.90
2023-02-13T17:50:29.071Z,11.70
2023-02-13T17:52:57.295Z,11.60
2023-02-13T17:55:28.759Z,11.60
2023-02-13T17:57:57.365Z,11.50
2023-02-13T18:00:29.834Z,11.50
2023-02-13T18:02:59.404Z,11.40
2023-02-13T18:05:27.957Z,11.20
2023-02-13T18:07:55.984Z,11.10
2023-02-13T18:10:27.690Z,11.00
2023-02-13T18:12:57.095Z,10.90
2023-02-13T18:15:24.616Z,10.80
2023-02-13T18:17:51.891Z,10.70
2023-02-13T18:20:21.432Z,10.70
2023-02-13T18:22:50.791Z,10.60
2023-02-13T18:25:19.668Z,10.50
2023-02-13T18:27:47.770Z,10.40
2023-02-13T18:30:19.182Z,10.40
2023-02-13T18:32:51.249Z,10.30
2023-02-13T18:35:19.124Z,10.20
2023-02-13T18:37:46.270Z,10.20
2023-02-13T18:40:15.167Z,10.10
2023-02-13T18:42:42.260Z,10.10
2023-02-13T18:45:10.984Z,10.00
2023-02-13T18:47:38.284Z,10.00
2023-02-13T18:50:06.302Z,9.90
2023-02-13T18:52:35.258Z,9.90
2023-02-13T18:55:03.032Z,9.90
2023-02-13T18:57:30.160Z,9.80
2023-02-13T18:59:57.371Z,9.80
2023-02-13T19:02:24.701Z,9.80
2023-02-13T19:04:51.899Z,9.70
2023-02-13T19:07:19.020Z,9.60
2023-02-13T19:09:46.273Z,9.60
2023-02-13T19:12:13.430Z,9.50
2023-02-13T19:14:40.844Z,9.40
2023-02-13T19:17:08.690Z,9.30
2023-02-13T19:19:36.550Z,9.20
2023-02-13T19:22:03.838Z,9.10
2023-02-13T19:24:31.244Z,9.10
2023-02-13T19:26:58.634Z,9.10
2023-02-13T19:29:25.941Z,9.00
2023-02-13T19:31:53.138Z,9.00
2023-02-13T19:34:20.361Z,8.90
2023-02-13T19:36:47.505Z,8.90
2023-02-13T19:39:14.915Z,8.80
2023-02-13T19:41:42.007Z,8.70
2023-02-13T19:44:09.162Z,8.70
2023-02-13T19:46:38.363Z,8.70
2023-02-13T19:49:06.372Z,8.70
2023-02-13T19:51:35.026Z,8.70
2023-02-13T19:54:08.070Z,8.70
2023-02-13T19:56:39.185Z,8.60
2023-02-13T19:59:09.057Z,8.60
2023-02-13T20:01:36.222Z,8.60
2023-02-13T20:04:03.425Z,8.60
2023-02-13T20:06:37.878Z,8.60
2023-02-13T20:09:12.098Z,8.50
2023-02-13T20:11:43.173Z,8.50
2023-02-13T20:14:15.019Z,8.50
2023-02-13T20:16:45.554Z,8.40
2023-02-13T20:19:14.120Z,8.40
2023-02-13T20:21:42.760Z,8.40
2023-02-13T20:24:12.116Z,8.40
2023-02-13T20:26:40.260Z,8.40
2023-02-13T20:29:08.072Z,8.30
2023-02-13T20:31:35.985Z,8.30
2023-02-13T20:34:06.584Z,8.30
2023-02-13T20:36:34.828Z,8.30
2023-02-13T20:39:04.054Z,8.30
2023-02-13T20:41:33.710Z,8.20
2023-02-13T20:44:03.749Z,8.20
2023-02-13T20:46:32.588Z,8.20
2023-02-13T20:49:00.128Z,8.20
2023-02-13T20:51:27.451Z,8.10
2023-02-13T20:53:55.650Z,8.10
2023-02-13T20:56:25.529Z,8.10
2023-02-13T20:58:55.586Z,8.00
2023-02-13T21:01:25.896Z,8.10
2023-02-13T21:03:54.996Z,8.10
2023-02-13T21:06:28.157Z,8.00
2023-02-13T21:08:56.197Z,8.00
2023-02-13T21:11:24.347Z,8.00
2023-02-13T21:13:52.262Z,8.00
2023-02-13T21:16:23.588Z,7.90
2023-02-13T21:18:54.547Z,7.90
2023-02-13T21:21:23.746Z,7.80
2023-02-13T21:23:56.140Z,7.70
2023-02-13T21:26:24.127Z,7.70
2023-02-13T21:28:51.744Z,7.70
2023-02-13T21:31:40.771Z,7.70
2023-02-13T21:34:10.994Z,7.70
2023-02-13T21:36:39.134Z,7.60
2023-02-13T21:39:08.796Z,7.60
2023-02-13T21:41:37.631Z,7.60
2023-02-13T21:44:04.958Z,7.60
2023-02-13T21:46:33.356Z,7.60
2023-02-13T21:49:03.054Z,7.50
2023-02-13T21:51:32.758Z,7.50
2023-02-13T21:54:01.407Z,7.50
2023-02-13T21:56:34.768Z,7.50
2023-02-13T21:59:02.333Z,7.60
2023-02-13T22:01:44.790Z,7.50
2023-02-13T22:04:12.130Z,7.50
2023-02-13T22:06:40.590Z,7.60
2023-02-13T22:09:14.720Z,7.60
2023-02-13T22:11:42.760Z,7.60
2023-02-13T22:14:17.155Z,7.60
2023-02-13T22:16:45.798Z,7.60
2023-02-13T22:19:15.084Z,7.60
2023-02-13T22:21:42.841Z,7.60
2023-02-13T22:24:10.029Z,7.60
2023-02-13T22:26:40.241Z,7.60
2023-02-13T22:29:10.646Z,7.60
2023-02-13T22:31:38.561Z,7.60
2023-02-13T22:34:06.924Z,7.60
2023-02-13T22:36:38.533Z,7.50
2023-02-13T22:39:10.293Z,7.50
2023-02-13T22:41:37.866Z,7.50
2023-02-13T22:44:05.226Z,7.50
2023-02-13T22:46:34.041Z,7.50
2023-02-13T22:49:01.661Z,7.50
2023-02-13T22:51:35.037Z,7.50
2023-02-13T22:54:02.489Z,7.40
2023-02-13T22:56:31.867Z,7.40
2023-02-13T22:58:59.688Z,7.30
2023-02-13T23:01:28.233Z,7.30
2023-02-13T23:03:56.218Z,7.30
2023-02-13T23:06:24.325Z,7.30
2023-02-13T23:08:53.704Z,7.20
2023-02-13T23:11:44.652Z,7.10
2023-02-13T23:14:12.933Z,7.10
2023-02-13T23:17:00.846Z,7.10
2023-02-13T23:19:29.919Z,7.10
2023-02-13T23:21:57.726Z,7.10
2023-02-13T23:24:25.088Z,7.20
2023-02-13T23:26:52.232Z,7.10
2023-02-13T23:29:19.429Z,7.10
2023-02-13T23:31:46.835Z,7.10
2023-02-13T23:34:14.068Z,7.10
2023-02-13T23:36:41.229Z,7.10
2023-02-13T23:39:08.522Z,7.00
2023-02-13T23:41:35.756Z,7.00
2023-02-13T23:44:03.229Z,7.00
2023-02-13T23:46:30.644Z,7.00
2023-02-13T23:48:57.961Z,7.00
2023-02-13T23:51:25.814Z,7.00
2023-02-13T23:53:56.822Z,7.00
2023-02-13T23:56:25.556Z,7.00
2023-02-13T23:58:53.325Z,6.90
